Time;durP1;ratioP1;P1;durP2;ratioP2;P2;SDS_P1;SDS_P2;PMS_P1;PMS_P2;Temp;Humidity;BMP_temperature;BMP_pressure;BME280_temperature;BME280_humidity;BME280_pressure;Samples;Min_cycle;Max_cycle;Signal;HPM_P1;HPM_P2
2023/09/15 00:00:24;;;;;;;6.50;3.75;;;;;;;24.32;43.11;99661.06;4840179;29;20125;-38
2023/09/15 00:02:58;;;;;;;8.70;3.75;;;;;;;24.36;42.95;99662.06;4842292;29;20036;-40
2023/09/15 00:05:28;;;;;;;11.10;3.65;;;;;;;24.43;42.82;99664.44;4845542;29;20030;-40
2023/09/15 00:07:56;;;;;;;9.18;3.40;;;;;;;24.38;42.88;99665.28;4840101;29;20072;-42
2023/09/15 00:10:21;;;;;;;12.57;3.60;;;;;;;24.63;42.42;99659.75;4840190;29;20037;-41
2023/09/15 00:12:47;;;;;;;8.20;3.60;;;;;;;24.34;42.74;99655.31;4840125;29;20493;-40
2023/09/15 00:15:13;;;;;;;6.53;3.28;;;;;;;24.44;42.63;99652.41;4840218;29;20375;-41
2023/09/15 00:17:40;;;;;;;9.32;3.42;;;;;;;24.52;42.32;99656.41;4840219;29;20441;-41
2023/09/15 00:20:13;;;;;;;9.30;3.15;;;;;;;24.19;43.24;99653.66;4840029;29;20534;-39
2023/09/15 00:22:52;;;;;;;10.20;4.28;;;;;;;24.13;43.29;99661.09;4839864;29;20098;-38
2023/09/15 00:25:23;;;;;;;9.30;3.22;;;;;;;24.16;43.12;99665.94;4840233;29;20044;-39
2023/09/15 00:27:51;;;;;;;9.93;3.60;;;;;;;24.36;42.96;99669.44;4840086;29;20422;-42
2023/09/15 00:30:19;;;;;;;8.98;3.50;;;;;;;24.34;43.23;99669.72;4839955;29;20037;-41
2023/09/15 00:32:46;;;;;;;10.10;3.40;;;;;;;24.01;43.34;99663.47;4839756;29;20510;-40
2023/09/15 00:35:12;;;;;;;11.85;3.67;;;;;;;24.30;42.82;99665.97;4840030;29;20042;-42
2023/09/15 00:37:37;;;;;;;9.95;4.53;;;;;;;24.29;43.26;99663.56;4839827;29;20030;-41
2023/09/15 00:40:07;;;;;;;9.50;3.40;;;;;;;24.51;42.23;99666.47;4839677;29;20044;-41
2023/09/15 00:42:33;;;;;;;6.25;3.10;;;;;;;23.98;43.13;99651.25;4839958;29;20440;-40
2023/09/15 00:45:04;;;;;;;7.15;2.78;;;;;;;24.13;42.96;99666.50;4839916;29;20395;-41
2023/09/15 00:47:31;;;;;;;8.05;3.40;;;;;;;24.03;43.23;99669.41;4838543;29;20356;-40
2023/09/15 00:49:57;;;;;;;6.82;3.20;;;;;;;23.85;43.28;99673.72;4839692;29;20139;-41
2023/09/15 00:52:23;;;;;;;7.60;3.08;;;;;;;23.87;43.21;99673.44;4843219;29;20060;-39
2023/09/15 00:54:49;;;;;;;8.30;3.38;;;;;;;23.98;42.86;99677.63;4843584;29;20479;-41
2023/09/15 00:57:14;;;;;;;8.63;4.20;;;;;;;23.78;42.82;99673.28;4843642;29;20036;-39
2023/09/15 00:59:40;;;;;;;6.97;3.45;;;;;;;23.61;42.66;99680.00;4843359;29;20045;-41
2023/09/15 01:02:06;;;;;;;8.43;3.13;;;;;;;23.38;43.03;99669.97;4843291;29;20105;-40
2023/09/15 01:04:33;;;;;;;7.22;3.45;;;;;;;23.52;42.58;99673.59;4841868;29;20110;-41
2023/09/15 01:07:03;;;;;;;9.95;3.42;;;;;;;23.84;41.96;99676.72;4843761;29;20041;-41
2023/09/15 01:09:29;;;;;;;7.97;3.42;;;;;;;23.39;42.85;99671.59;4843018;29;20560;-40
2023/09/15 01:11:55;;;;;;;8.65;3.60;;;;;;;23.19;42.69;99672.66;4843231;29;20090;-40
2023/09/15 01:14:21;;;;;;;7.63;3.25;;;;;;;23.58;42.35;99677.06;4843085;29;20030;-40
2023/09/15 01:16:54;;;;;;;9.80;3.45;;;;;;;23.41;42.19;99663.97;4843208;29;20155;-41
2023/09/15 01:19:50;;;;;;;9.98;3.45;;;;;;;23.85;41.61;99687.31;4842757;29;20042;-40
2023/09/15 01:22:50;;;;;;;9.10;3.42;;;;;;;24.02;41.74;99681.34;4843147;29;20032;-40
2023/09/15 01:25:24;;;;;;;8.23;3.50;;;;;;;23.84;41.56;99676.72;4843247;29;20112;-40
2023/09/15 01:28:33;;;;;;;8.65;3.30;;;;;;;23.78;41.80;99679.53;4855820;29;20041;-39
2023/09/15 01:31:00;;;;;;;11.30;3.38;;;;;;;23.16;43.14;99684.06;4861141;29;20037;-39
2023/09/15 01:33:27;;;;;;;8.05;3.35;;;;;;;23.30;42.56;99682.25;4861237;29;20110;-40
2023/09/15 01:35:52;;;;;;;9.68;3.42;;;;;;;23.54;42.42;99687.69;4861104;29;20033;-42
2023/09/15 01:38:18;;;;;;;10.40;3.60;;;;;;;23.69;41.82;99688.59;4861403;29;20033;-39
2023/09/15 01:40:43;;;;;;;9.85;3.17;;;;;;;23.69;41.23;99696.75;4861193;29;20060;-38
2023/09/15 01:43:10;;;;;;;10.52;3.42;;;;;;;23.50;41.44;99702.16;4861144;29;20088;-42
2023/09/15 01:45:35;;;;;;;6.53;3.17;;;;;;;23.58;41.38;99702.28;4858088;29;20029;-40
2023/09/15 01:48:02;;;;;;;8.48;3.42;;;;;;;23.62;41.03;99708.75;4852827;29;20422;-40
2023/09/15 01:50:28;;;;;;;11.27;3.33;;;;;;;23.56;41.26;99700.97;4851965;29;20037;-41
2023/09/15 01:52:55;;;;;;;11.30;3.50;;;;;;;23.70;41.56;99701.06;4846154;29;20070;-40
2023/09/15 01:55:22;;;;;;;8.30;3.08;;;;;;;23.87;41.07;99706.03;4842706;29;20038;-39
2023/09/15 01:57:47;;;;;;;8.38;3.28;;;;;;;23.88;40.88;99705.75;4842763;29;20570;-39
2023/09/15 02:00:13;;;;;;;8.77;3.20;;;;;;;23.58;40.87;99698.78;4842211;29;20195;-40
2023/09/15 02:02:39;;;;;;;11.05;3.10;;;;;;;23.64;40.79;99707.66;4842179;29;20344;-40
2023/09/15 02:05:05;;;;;;;10.23;3.28;;;;;;;23.70;40.69;99706.50;4842460;29;20034;-38
2023/09/15 02:07:30;;;;;;;8.80;3.30;;;;;;;23.39;41.12;99718.53;4842416;29;20034;-41
2023/09/15 02:09:56;;;;;;;9.45;3.50;;;;;;;23.34;41.23;99715.06;4842466;29;20029;-42
2023/09/15 02:12:21;;;;;;;9.38;2.95;;;;;;;23.55;40.77;99716.47;4842301;29;20045;-40
2023/09/15 02:14:46;;;;;;;10.60;3.50;;;;;;;23.53;41.02;99717.84;4841886;29;20099;-41
2023/09/15 02:17:15;;;;;;;13.75;3.80;;;;;;;23.72;41.38;99718.72;4841900;29;20041;-41
2023/09/15 02:19:41;;;;;;;9.75;3.63;;;;;;;23.76;41.21;99713.47;4842417;29;20060;-40
2023/09/15 02:22:07;;;;;;;7.70;2.90;;;;;;;23.94;40.51;99709.22;4841959;29;20486;-41
2023/09/15 02:24:33;;;;;;;11.52;4.10;;;;;;;23.67;41.06;99718.75;4842005;29;20061;-41
2023/09/15 02:26:59;;;;;;;9.70;3.08;;;;;;;23.78;40.60;99720.28;4841752;29;20026;-41
2023/09/15 02:29:25;;;;;;;10.23;3.20;;;;;;;23.48;40.92;99720.63;4841767;29;20102;-40
2023/09/15 02:31:51;;;;;;;10.40;3.25;;;;;;;23.55;41.57;99721.06;4841745;29;20029;-40
2023/09/15 02:34:16;;;;;;;7.60;3.10;;;;;;;23.58;41.51;99724.03;4841616;29;20102;-40
2023/09/15 02:36:43;;;;;;;7.53;2.90;;;;;;;23.68;41.59;99725.81;4841347;29;20044;-41
2023/09/15 02:39:09;;;;;;;6.07;2.67;;;;;;;23.73;41.55;99728.47;4841935;29;20109;-40
2023/09/15 02:41:35;;;;;;;8.40;3.28;;;;;;;23.62;40.97;99724.25;4841670;29;20057;-40
2023/09/15 02:44:00;;;;;;;9.35;3.10;;;;;;;23.56;40.98;99718.06;4841508;29;20041;-39
2023/09/15 02:46:26;;;;;;;5.57;3.00;;;;;;;23.53;40.91;99720.56;4841248;29;20034;-40
2023/09/15 02:48:52;;;;;;;12.40;3.22;;;;;;;23.62;41.02;99722.34;4841741;29;20041;-40
2023/09/15 02:51:17;;;;;;;13.10;4.13;;;;;;;23.63;40.47;99728.59;4853743;29;20033;-39
2023/09/15 02:53:43;;;;;;;7.30;3.45;;;;;;;23.51;40.61;99736.34;4859794;29;20029;-39
2023/09/15 02:56:08;;;;;;;9.15;3.20;;;;;;;23.46;40.65;99730.97;4859718;29;20110;-39
2023/09/15 02:58:34;;;;;;;10.20;3.47;;;;;;;23.54;40.61;99736.56;4860221;29;20094;-42
2023/09/15 03:01:00;;;;;;;8.77;3.15;;;;;;;23.57;40.99;99740.59;4859405;29;20072;-39
2023/09/15 03:03:25;;;;;;;8.05;3.50;;;;;;;23.54;42.95;99741.19;4859619;29;20033;-40
2023/09/15 03:06:02;;;;;;;9.45;3.83;;;;;;;23.58;41.94;99742.22;4859712;29;20048;-40
2023/09/15 03:08:29;;;;;;;9.45;3.40;;;;;;;23.58;42.05;99748.47;4860140;29;20394;-39
2023/09/15 03:10:54;;;;;;;8.10;3.40;;;;;;;23.54;41.83;99730.34;4859769;29;20442;-39
2023/09/15 03:13:20;;;;;;;11.38;3.53;;;;;;;23.64;41.85;99732.91;4858811;29;20025;-39
2023/09/15 03:15:45;;;;;;;10.07;3.72;;;;;;;23.67;41.75;99724.19;4859307;29;20036;-40
2023/09/15 03:18:11;;;;;;;16.13;6.35;;;;;;;23.63;42.07;99731.31;4859488;29;20038;-41
2023/09/15 03:20:37;;;;;;;46.15;25.45;;;;;;;23.62;42.30;99740.53;4859620;29;20042;-39
2023/09/15 03:23:03;;;;;;;104.63;58.17;;;;;;;23.55;42.13;99724.63;4859371;29;20033;-39
2023/09/15 03:25:28;;;;;;;34.30;19.75;;;;;;;23.56;41.38;99734.38;4857780;29;20424;-40
2023/09/15 03:27:53;;;;;;;15.10;9.52;;;;;;;23.52;41.58;99746.13;4859075;29;20056;-40
2023/09/15 03:30:19;;;;;;;11.20;3.97;;;;;;;23.48;42.82;99753.22;4859183;29;20033;-40
2023/09/15 03:32:44;;;;;;;9.00;3.92;;;;;;;23.50;42.63;99751.81;4859357;29;20032;-38
2023/09/15 03:35:10;;;;;;;11.45;3.58;;;;;;;23.45;42.88;99748.38;4859132;29;20483;-39
2023/09/15 03:37:36;;;;;;;6.20;3.30;;;;;;;23.43;42.93;99757.59;4858942;29;20603;-38
2023/09/15 03:40:04;;;;;;;9.20;3.92;;;;;;;23.46;42.43;99760.84;4858292;29;20034;-39
2023/09/15 03:42:30;;;;;;;8.73;4.00;;;;;;;23.37;42.08;99755.22;4857604;29;20030;-38
2023/09/15 03:44:56;;;;;;;7.45;3.70;;;;;;;23.37;41.67;99758.75;4857454;29;20062;-39
2023/09/15 03:47:21;;;;;;;15.40;7.28;;;;;;;23.36;42.32;99761.75;4857548;29;20733;-39
2023/09/15 03:49:47;;;;;;;13.68;5.65;;;;;;;23.32;42.81;99771.56;4857732;29;20037;-38
2023/09/15 03:52:13;;;;;;;13.45;4.80;;;;;;;23.37;42.98;99775.03;4858031;29;20101;-39
2023/09/15 03:54:38;;;;;;;12.98;4.20;;;;;;;23.35;42.85;99777.22;4858006;29;20033;-38
2023/09/15 03:57:05;;;;;;;8.77;3.80;;;;;;;23.35;43.28;99788.09;4858891;29;20498;-38
2023/09/15 03:59:30;;;;;;;11.60;3.97;;;;;;;23.32;43.09;99787.84;4858717;29;20153;-39
2023/09/15 04:01:57;;;;;;;10.43;4.13;;;;;;;23.31;43.07;99787.06;4859007;29;20132;-40
2023/09/15 04:04:22;;;;;;;11.57;4.40;;;;;;;23.26;43.48;99789.81;4859738;29;20033;-38
2023/09/15 04:06:48;;;;;;;12.20;4.10;;;;;;;23.23;43.55;99795.84;4857965;29;20067;-40
2023/09/15 04:09:13;;;;;;;8.57;3.97;;;;;;;23.23;43.89;99802.06;4858620;29;20398;-41
2023/09/15 04:11:40;;;;;;;10.77;3.90;;;;;;;23.19;44.11;99800.22;4858862;29;20040;-38
2023/09/15 04:14:06;;;;;;;178.13;100.30;;;;;;;23.15;44.44;99791.00;4855585;29;20058;-38
2023/09/15 04:16:32;;;;;;;23.83;12.70;;;;;;;23.15;44.36;99799.16;4858958;29;20133;-39
2023/09/15 04:18:57;;;;;;;12.75;4.70;;;;;;;23.21;44.63;99803.47;4859198;29;20037;-39
2023/09/15 04:21:23;;;;;;;15.50;5.15;;;;;;;23.14;44.80;99811.91;4858925;29;20447;-41
2023/09/15 04:23:48;;;;;;;24.70;13.43;;;;;;;23.27;44.94;99815.88;4858539;29;20502;-39
2023/09/15 04:26:14;;;;;;;18.45;8.57;;;;;;;23.31;45.20;99808.78;4859075;29;20029;-38
2023/09/15 04:28:39;;;;;;;15.23;7.57;;;;;;;23.38;45.02;99819.28;4858848;29;20080;-37
2023/09/15 04:31:04;;;;;;;22.02;9.55;;;;;;;23.25;45.81;99825.38;4858698;29;20170;-38
2023/09/15 04:33:30;;;;;;;15.18;6.47;;;;;;;23.34;45.69;99823.66;4858237;29;20109;-38
2023/09/15 04:35:55;;;;;;;9.65;4.90;;;;;;;23.34;45.50;99829.09;4858469;29;20041;-37
2023/09/15 04:38:21;;;;;;;14.80;6.70;;;;;;;23.44;45.51;99829.03;4858226;29;20029;-37
2023/09/15 04:40:46;;;;;;;28.05;16.55;;;;;;;23.58;45.14;99826.44;4858179;29;20037;-39
2023/09/15 04:43:12;;;;;;;13.82;6.18;;;;;;;23.70;44.65;99831.44;4858407;29;20040;-38
2023/09/15 04:45:39;;;;;;;14.52;4.78;;;;;;;23.79;44.28;99835.19;4858864;29;20545;-40
2023/09/15 04:48:05;;;;;;;13.65;5.88;;;;;;;23.88;44.17;99827.22;4858419;29;20116;-38
2023/09/15 04:50:30;;;;;;;12.45;5.03;;;;;;;24.09;44.08;99838.66;4858047;29;20147;-40
2023/09/15 04:52:56;;;;;;;11.27;5.10;;;;;;;24.36;43.78;99835.28;4857742;29;20025;-38
2023/09/15 04:55:22;;;;;;;29.23;6.05;;;;;;;24.64;43.47;99835.50;4857750;29;20037;-39
2023/09/15 04:57:48;;;;;;;23.63;5.53;;;;;;;24.84;43.02;99837.09;4857501;29;20063;-39
2023/09/15 05:00:21;;;;;;;24.45;5.85;;;;;;;25.09;42.60;99842.13;4856729;29;20089;-40
2023/09/15 05:02:46;;;;;;;16.70;4.88;;;;;;;25.34;42.12;99846.34;4846024;29;20030;-40
2023/09/15 05:05:12;;;;;;;15.05;5.13;;;;;;;25.31;42.48;99836.03;4857424;29;20486;-39
2023/09/15 05:07:37;;;;;;;7.72;4.40;;;;;;;25.66;42.29;99838.41;4858134;29;20439;-39
2023/09/15 05:10:03;;;;;;;9.68;4.30;;;;;;;25.90;41.91;99835.50;4853782;29;20444;-38
2023/09/15 05:12:29;;;;;;;14.02;4.80;;;;;;;26.10;41.94;99842.47;4856588;29;20121;-40
2023/09/15 05:14:54;;;;;;;11.40;4.70;;;;;;;26.37;40.82;99835.34;4851098;29;20065;-40
2023/09/15 05:17:19;;;;;;;13.10;4.50;;;;;;;26.67;40.45;99836.59;4839082;29;20136;-39
2023/09/15 05:19:47;;;;;;;10.35;4.13;;;;;;;26.68;40.56;99846.44;4844207;29;20033;-40
2023/09/15 05:22:12;;;;;;;14.32;4.22;;;;;;;26.85;40.20;99841.09;4849097;29;20030;-41
2023/09/15 05:24:38;;;;;;;13.73;5.10;;;;;;;27.17;39.75;99846.59;4848431;29;20029;-40
2023/09/15 05:27:03;;;;;;;6.53;4.13;;;;;;;27.37;39.15;99846.09;4848744;29;20037;-40
2023/09/15 05:29:29;;;;;;;12.75;4.65;;;;;;;27.22;39.71;99847.28;4848566;29;20105;-39
2023/09/15 05:31:54;;;;;;;10.98;4.78;;;;;;;27.52;39.07;99849.56;4840161;29;20037;-44
2023/09/15 05:34:20;;;;;;;11.00;5.30;;;;;;;27.69;38.81;99844.16;4841254;29;21548;-40
2023/09/15 05:36:45;;;;;;;10.55;4.63;;;;;;;27.95;38.68;99843.47;4857035;29;20113;-41
2023/09/15 05:39:11;;;;;;;8.65;4.65;;;;;;;28.21;37.84;99846.28;4861321;29;20505;-39
2023/09/15 05:41:36;;;;;;;11.40;4.75;;;;;;;28.39;37.70;99849.84;4860933;29;20085;-40
2023/09/15 05:44:02;;;;;;;10.98;4.55;;;;;;;28.59;37.50;99834.75;4860813;29;20070;-41
2023/09/15 05:46:27;;;;;;;13.45;4.80;;;;;;;28.74;37.14;99850.69;4861037;29;20040;-40
2023/09/15 05:48:53;;;;;;;15.45;5.15;;;;;;;28.97;36.72;99854.06;4860461;29;20653;-41
2023/09/15 05:51:18;;;;;;;14.38;4.80;;;;;;;29.12;36.40;99854.69;4860671;29;20077;-40
2023/09/15 05:53:44;;;;;;;15.73;4.88;;;;;;;29.28;36.50;99865.97;4852495;29;20030;-41
2023/09/15 05:56:10;;;;;;;15.38;5.80;;;;;;;29.50;36.19;99862.19;4842241;29;20414;-40
2023/09/15 05:58:35;;;;;;;12.07;4.80;;;;;;;29.77;35.57;99866.47;4840948;29;20045;-41
2023/09/15 06:01:01;;;;;;;9.20;4.85;;;;;;;29.96;35.89;99866.88;4841411;29;20058;-43
2023/09/15 06:03:26;;;;;;;10.27;5.07;;;;;;;30.42;34.42;99863.56;4841810;29;20041;-41
2023/09/15 06:05:52;;;;;;;12.82;6.00;;;;;;;30.90;33.90;99860.28;4842154;29;20037;-41
2023/09/15 06:08:19;;;;;;;16.23;5.50;;;;;;;31.25;33.65;99857.19;4840708;29;20041;-41
2023/09/15 06:10:45;;;;;;;11.82;5.20;;;;;;;31.55;32.63;99868.06;4841815;29;20034;-41
2023/09/15 06:13:10;;;;;;;10.95;4.90;;;;;;;31.86;32.23;99862.00;4842003;29;20026;-40
2023/09/15 06:15:36;;;;;;;9.25;4.70;;;;;;;32.04;31.81;99861.78;4841776;29;20030;-41
2023/09/15 06:18:01;;;;;;;11.75;4.57;;;;;;;31.81;31.93;99859.47;4854597;29;20434;-40
2023/09/15 06:20:30;;;;;;;11.52;4.70;;;;;;;32.02;31.71;99864.06;4859406;29;20037;-42
2023/09/15 06:22:56;;;;;;;13.57;5.63;;;;;;;32.05;31.78;99860.66;4860036;29;20057;-42
2023/09/15 06:25:21;;;;;;;9.25;5.03;;;;;;;32.10;31.75;99866.72;4860185;29;20129;-40
2023/09/15 06:27:47;;;;;;;14.65;5.60;;;;;;;32.22;31.92;99865.09;4859996;29;20033;-43
2023/09/15 06:30:13;;;;;;;12.32;6.28;;;;;;;32.46;31.49;99867.00;4859759;29;20125;-41
2023/09/15 06:32:38;;;;;;;9.48;4.60;;;;;;;32.43;31.72;99862.19;4859013;29;20064;-42
2023/09/15 06:35:04;;;;;;;9.27;4.90;;;;;;;32.87;31.16;99867.81;4859291;29;20117;-42
2023/09/15 06:37:29;;;;;;;10.68;5.13;;;;;;;32.69;31.20;99870.88;4859069;29;20025;-42
2023/09/15 06:39:55;;;;;;;10.93;5.57;;;;;;;32.31;31.42;99865.75;4859534;29;20033;-41
2023/09/15 06:42:20;;;;;;;12.98;5.05;;;;;;;32.59;31.30;99876.84;4859770;29;20029;-41
2023/09/15 06:44:46;;;;;;;11.98;5.25;;;;;;;32.92;30.53;99870.31;4859930;29;20575;-41
2023/09/15 06:47:11;;;;;;;10.30;4.85;;;;;;;33.15;30.53;99878.84;4859895;29;20228;-40
2023/09/15 06:49:36;;;;;;;8.75;4.50;;;;;;;33.44;30.46;99876.84;4858595;29;20030;-45
2023/09/15 06:52:02;;;;;;;8.88;4.20;;;;;;;33.78;29.97;99883.66;4859653;29;20090;-40
2023/09/15 06:54:28;;;;;;;8.77;4.70;;;;;;;33.58;29.96;99884.69;4859641;29;20036;-40
2023/09/15 06:56:53;;;;;;;10.98;4.38;;;;;;;33.89;29.36;99886.66;4860283;29;20112;-42
2023/09/15 06:59:18;;;;;;;10.07;4.70;;;;;;;33.15;30.30;99880.78;4860178;29;20138;-40
2023/09/15 07:01:44;;;;;;;11.50;4.63;;;;;;;33.69;29.81;99878.31;4860106;29;20102;-41
2023/09/15 07:04:12;;;;;;;12.73;4.50;;;;;;;33.65;29.63;99871.91;4860141;29;20447;-42
2023/09/15 07:06:38;;;;;;;10.43;4.10;;;;;;;33.82;29.28;99870.72;4859775;29;20021;-42
2023/09/15 07:09:04;;;;;;;7.40;3.65;;;;;;;33.98;29.23;99876.22;4859630;29;20085;-41
2023/09/15 07:11:30;;;;;;;10.20;4.22;;;;;;;34.02;28.76;99862.50;4859471;29;20038;-40
2023/09/15 07:13:55;;;;;;;9.30;3.63;;;;;;;34.72;28.34;99880.28;4859598;29;20018;-42
2023/09/15 07:16:20;;;;;;;6.63;3.65;;;;;;;34.62;27.87;99874.13;4859741;29;20115;-42
2023/09/15 07:18:46;;;;;;;11.18;3.92;;;;;;;34.44;28.65;99873.75;4859644;29;20029;-42
2023/09/15 07:21:11;;;;;;;9.13;3.90;;;;;;;34.71;28.48;99882.25;4859628;29;20029;-42
2023/09/15 07:23:37;;;;;;;8.00;4.22;;;;;;;34.46;28.99;99871.44;4859015;29;20025;-43
2023/09/15 07:26:02;;;;;;;7.70;4.07;;;;;;;35.35;27.20;99868.06;4858783;29;20026;-45
2023/09/15 07:28:27;;;;;;;8.55;4.45;;;;;;;35.56;27.11;99864.88;4858697;29;20406;-42
2023/09/15 07:31:04;;;;;;;11.73;4.28;;;;;;;35.89;26.79;99861.50;4858728;29;20490;-43
2023/09/15 07:33:30;;;;;;;8.48;4.10;;;;;;;36.26;26.17;99866.38;4858421;29;20025;-41
2023/09/15 07:36:00;;;;;;;8.63;4.28;;;;;;;36.55;26.08;99869.53;4858839;29;20029;-41
2023/09/15 07:38:26;;;;;;;10.10;4.50;;;;;;;36.37;26.17;99859.03;4858291;29;20036;-43
2023/09/15 07:40:51;;;;;;;10.82;4.50;;;;;;;36.98;25.40;99858.97;4858594;29;20029;-43
2023/09/15 07:43:16;;;;;;;7.53;3.90;;;;;;;36.95;25.48;99862.50;4857979;29;20130;-42
2023/09/15 07:45:42;;;;;;;9.50;3.88;;;;;;;36.71;25.60;99861.84;4858512;29;20037;-45
2023/09/15 07:48:07;;;;;;;11.85;4.95;;;;;;;36.93;25.00;99862.09;4858222;29;20093;-42
2023/09/15 07:50:33;;;;;;;11.55;4.90;;;;;;;35.94;26.27;99863.13;4858494;29;20029;-43
2023/09/15 07:52:59;;;;;;;7.32;4.90;;;;;;;36.36;26.08;99862.16;4858193;29;20043;-41
2023/09/15 07:55:25;;;;;;;7.90;4.40;;;;;;;36.78;25.33;99858.34;4857216;29;20359;-42
2023/09/15 07:57:50;;;;;;;11.98;4.45;;;;;;;36.38;25.64;99865.34;4858451;29;20061;-43
2023/09/15 08:00:16;;;;;;;8.30;4.90;;;;;;;36.42;25.44;99859.88;4858121;29;20083;-42
2023/09/15 08:02:42;;;;;;;9.63;4.63;;;;;;;36.09;26.04;99856.63;4858727;29;20033;-40
2023/09/15 08:05:08;;;;;;;6.35;4.72;;;;;;;36.00;26.42;99862.44;4858768;29;20025;-45
2023/09/15 08:07:33;;;;;;;12.63;5.07;;;;;;;36.40;25.67;99852.75;4858579;29;20081;-42
2023/09/15 08:10:00;;;;;;;10.10;4.47;;;;;;;36.70;25.25;99859.47;4858711;29;20022;-43
2023/09/15 08:12:26;;;;;;;7.90;4.32;;;;;;;36.62;25.32;99864.09;4858578;29;20056;-41
2023/09/15 08:14:52;;;;;;;8.45;4.53;;;;;;;37.23;24.75;99847.38;4854419;29;20030;-43
2023/09/15 08:17:17;;;;;;;10.15;5.00;;;;;;;36.81;25.24;99848.50;4840407;29;20022;-41
2023/09/15 08:19:43;;;;;;;7.97;4.90;;;;;;;37.52;24.22;99843.66;4839931;29;20037;-42
2023/09/15 08:22:08;;;;;;;9.05;4.55;;;;;;;37.75;23.99;99832.34;4840065;29;20030;-45
2023/09/15 08:24:34;;;;;;;11.00;5.63;;;;;;;37.50;23.79;99832.13;4840121;29;20090;-41
2023/09/15 08:26:59;;;;;;;11.43;5.07;;;;;;;36.87;24.80;99838.66;4840132;29;20036;-41
2023/09/15 08:29:25;;;;;;;10.20;4.93;;;;;;;36.92;24.86;99841.88;4839965;29;20108;-42
2023/09/15 08:31:50;;;;;;;8.23;4.63;;;;;;;37.14;24.56;99829.06;4840480;29;20026;-46
2023/09/15 08:34:15;;;;;;;11.13;4.95;;;;;;;37.06;24.59;99829.34;4840203;29;20028;-44
2023/09/15 08:36:41;;;;;;;8.82;4.70;;;;;;;37.48;24.20;99826.19;4839867;29;20072;-41
2023/09/15 08:39:08;;;;;;;11.02;4.97;;;;;;;37.11;24.46;99828.97;4839440;29;20018;-44
2023/09/15 08:41:49;;;;;;;8.35;4.55;;;;;;;37.36;24.11;99821.72;4838381;29;20030;-44
2023/09/15 08:44:16;;;;;;;8.82;4.93;;;;;;;37.21;24.39;99819.22;4837862;29;20034;-40
2023/09/15 08:46:43;;;;;;;7.13;4.60;;;;;;;37.55;23.87;99817.13;4839650;29;20104;-43
2023/09/15 08:49:09;;;;;;;13.20;4.97;;;;;;;37.70;23.99;99807.75;4839033;29;20085;-41
2023/09/15 08:51:39;;;;;;;8.73;4.80;;;;;;;38.03;23.47;99796.84;4838386;29;20037;-42
2023/09/15 08:54:05;;;;;;;10.73;4.45;;;;;;;38.40;23.28;99804.16;4837344;29;20097;-42
2023/09/15 08:56:31;;;;;;;7.47;4.60;;;;;;;38.77;22.56;99808.69;4844196;29;20041;-41
2023/09/15 08:58:57;;;;;;;7.60;4.45;;;;;;;38.06;23.21;99802.41;4856143;29;20053;-42
2023/09/15 09:01:23;;;;;;;7.75;4.53;;;;;;;38.22;23.00;99810.44;4855711;29;20044;-42
2023/09/15 09:03:48;;;;;;;8.98;4.25;;;;;;;37.82;22.71;99801.09;4856151;29;20479;-41
2023/09/15 09:06:15;;;;;;;6.68;4.35;;;;;;;37.82;22.82;99803.84;4856438;29;20025;-42
2023/09/15 09:08:45;;;;;;;6.45;4.35;;;;;;;37.77;22.08;99803.44;4856969;29;20033;-43
2023/09/15 09:11:10;;;;;;;7.68;4.55;;;;;;;37.02;23.12;99798.03;4857422;29;20498;-41
2023/09/15 09:13:36;;;;;;;11.50;4.78;;;;;;;37.03;23.30;99805.94;4861176;29;20081;-42
2023/09/15 09:16:05;;;;;;;9.45;4.80;;;;;;;36.97;24.16;99802.72;4861227;29;20037;-42
2023/09/15 09:18:32;;;;;;;7.93;5.00;;;;;;;36.55;24.57;99789.97;4861154;29;20041;-45
2023/09/15 09:20:57;;;;;;;7.95;4.45;;;;;;;36.74;23.75;99793.78;4860966;29;20112;-41
2023/09/15 09:23:23;;;;;;;8.57;4.57;;;;;;;36.47;24.58;99791.06;4861307;29;20181;-45
2023/09/15 09:25:48;;;;;;;8.93;4.97;;;;;;;37.17;24.23;99797.78;4861272;29;20115;-44
2023/09/15 09:28:14;;;;;;;9.43;5.10;;;;;;;37.36;24.28;99791.22;4860862;29;20068;-44
2023/09/15 09:30:40;;;;;;;7.95;4.40;;;;;;;37.79;23.90;99785.19;4861088;29;20041;-44
2023/09/15 09:33:08;;;;;;;8.95;4.65;;;;;;;38.27;23.08;99787.84;4861007;29;20033;-42
2023/09/15 09:35:35;;;;;;;6.85;4.43;;;;;;;38.32;22.57;99784.69;4860824;29;20111;-43
2023/09/15 09:38:01;;;;;;;7.80;4.82;;;;;;;37.73;22.90;99778.41;4854008;29;20041;-43
2023/09/15 09:40:27;;;;;;;7.68;4.78;;;;;;;36.39;24.52;99781.09;4858780;29;20063;-42
2023/09/15 09:42:55;;;;;;;6.93;4.40;;;;;;;35.65;25.11;99773.31;4860884;29;20415;-41
2023/09/15 09:45:27;;;;;;;8.68;4.78;;;;;;;35.63;25.18;99763.41;4859088;29;20040;-40
2023/09/15 09:47:57;;;;;;;6.72;4.50;;;;;;;35.30;26.02;99760.50;4852001;29;20511;-45
2023/09/15 09:50:22;;;;;;;9.13;4.50;;;;;;;34.59;26.71;99760.78;4852090;29;20033;-41
2023/09/15 09:52:49;;;;;;;7.68;4.60;;;;;;;35.12;26.24;99751.91;4852351;29;20045;-43
2023/09/15 09:55:15;;;;;;;7.82;4.63;;;;;;;34.81;26.81;99762.03;4852302;29;20507;-44
2023/09/15 09:57:40;;;;;;;7.00;4.63;;;;;;;34.92;26.90;99759.44;4851645;29;20043;-41
2023/09/15 10:00:10;;;;;;;8.38;4.30;;;;;;;35.16;25.98;99752.75;4852476;29;20106;-42
2023/09/15 10:02:42;;;;;;;7.30;4.40;;;;;;;34.49;27.23;99755.84;4851026;29;20484;-42
2023/09/15 10:05:08;;;;;;;8.88;4.10;;;;;;;34.74;27.35;99748.06;4850652;29;20417;-42
2023/09/15 10:07:34;;;;;;;8.82;4.47;;;;;;;34.23;27.58;99757.31;4852504;29;20025;-41
2023/09/15 10:09:59;;;;;;;7.45;4.70;;;;;;;33.92;27.60;99764.50;4852169;29;20037;-42
2023/09/15 10:12:25;;;;;;;9.38;4.63;;;;;;;33.85;27.95;99748.63;4851408;29;20034;-42
2023/09/15 10:14:51;;;;;;;6.45;4.43;;;;;;;34.70;27.45;99745.25;4842084;29;20034;-42
2023/09/15 10:17:18;;;;;;;9.85;5.00;;;;;;;34.95;27.01;99739.38;4842977;29;20064;-45
2023/09/15 10:19:47;;;;;;;8.70;4.57;;;;;;;34.77;27.15;99744.59;4842319;29;20030;-45
2023/09/15 10:22:13;;;;;;;;;;;;;;;34.62;27.98;99746.25;4844462;29;20170;-46
2023/09/15 10:24:47;;;;;;;8.23;5.00;;;;;;;35.13;26.95;99740.47;4850204;29;19916;-43
2023/09/15 10:27:14;;;;;;;8.10;4.80;;;;;;;35.47;26.64;99742.59;4851077;29;20030;-45
2023/09/15 10:29:43;;;;;;;8.20;4.38;;;;;;;35.88;25.96;99732.53;4850036;29;20119;-45
2023/09/15 10:32:08;;;;;;;9.40;4.78;;;;;;;35.07;26.16;99733.63;4852745;29;20039;-47
2023/09/15 10:34:34;;;;;;;10.18;4.75;;;;;;;34.69;26.29;99735.38;4850491;29;20033;-45
2023/09/15 10:37:01;;;;;;;6.60;4.50;;;;;;;34.97;26.91;99724.00;4850290;29;20025;-45
2023/09/15 10:39:38;;;;;;;9.90;4.80;;;;;;;35.47;25.72;99728.75;4849164;29;20026;-43
2023/09/15 10:42:13;;;;;;;5.65;4.60;;;;;;;35.31;25.84;99717.88;4841995;29;20037;-47
2023/09/15 10:44:40;;;;;;;7.03;4.15;;;;;;;34.83;26.97;99707.19;4850295;29;20104;-46
2023/09/15 10:47:19;;;;;;;9.43;4.97;;;;;;;35.21;26.48;99711.78;4850826;29;20030;-44
2023/09/15 10:49:50;;;;;;;11.98;4.90;;;;;;;34.58;27.50;99709.47;4850499;29;20274;-44
2023/09/15 10:52:15;;;;;;;7.57;4.63;;;;;;;34.50;27.11;99714.06;4851312;29;20067;-43
2023/09/15 10:54:41;;;;;;;8.45;4.25;;;;;;;34.50;27.34;99705.78;4850227;29;20069;-43
2023/09/15 10:57:08;;;;;;;7.18;4.43;;;;;;;35.18;26.20;99703.44;4850197;29;20112;-43
2023/09/15 10:59:36;;;;;;;8.50;4.63;;;;;;;35.51;26.39;99707.47;4851454;29;20088;-45
2023/09/15 11:02:02;;;;;;;10.65;4.53;;;;;;;35.01;26.28;99700.00;4849844;29;20058;-46
2023/09/15 11:04:29;;;;;;;8.75;4.68;;;;;;;34.59;26.36;99705.53;4852350;29;20049;-41
2023/09/15 11:06:55;;;;;;;9.43;4.80;;;;;;;35.19;26.04;99700.31;4851573;29;20510;-43
2023/09/15 11:09:21;;;;;;;5.78;4.50;;;;;;;35.86;25.11;99698.91;4849763;29;20025;-43
2023/09/15 11:11:49;;;;;;;6.68;4.25;;;;;;;34.70;26.22;99703.00;4849747;29;20052;-45
2023/09/15 11:14:19;;;;;;;9.13;4.53;;;;;;;34.60;27.00;99696.09;4848738;29;20032;-43
2023/09/15 11:16:48;;;;;;;8.93;4.80;;;;;;;34.65;26.86;99696.59;4856730;29;20033;-43
2023/09/15 11:19:16;;;;;;;9.18;4.78;;;;;;;35.26;26.29;99698.81;4859674;29;20064;-45
2023/09/15 11:21:41;;;;;;;7.05;4.43;;;;;;;34.75;26.92;99683.34;4859860;29;20090;-49
2023/09/15 11:24:09;;;;;;;10.07;4.50;;;;;;;34.31;27.07;99684.50;4859657;29;20538;-45
2023/09/15 11:26:35;;;;;;;9.13;5.00;;;;;;;34.60;26.86;99687.81;4859700;29;20118;-44